sensor_id;sensor_type;location;lat;lon;timestamp;pressure;altitude;pressure_sealevel;temperature;humidity
40245;BME280;25963;42.694;23.600;2023-07-16T00:01:51;95445.50;;;24.00;100.00
40245;BME280;25963;42.694;23.600;2023-07-16T00:04:17;95448.91;;;24.05;100.00
40245;BME280;25963;42.694;23.600;2023-07-16T00:06:42;95447.16;;;23.82;100.00
40245;BME280;25963;42.694;23.600;2023-07-16T00:09:07;95439.06;;;23.82;100.00
40245;BME280;25963;42.694;23.600;2023-07-16T00:11:33;95440.66;;;23.83;100.00
40245;BME280;25963;42.694;23.600;2023-07-16T00:13:58;95443.44;;;23.78;100.00
40245;BME280;25963;42.694;23.600;2023-07-16T00:16:24;95424.91;;;23.90;100.00
40245;BME280;25963;42.694;23.600;2023-07-16T00:18:49;95448.06;;;23.91;100.00
40245;BME280;25963;42.694;23.600;2023-07-16T00:21:15;95446.72;;;24.07;100.00
40245;BME280;25963;42.694;23.600;2023-07-16T00:23:40;95445.47;;;23.67;100.00
40245;BME280;25963;42.694;23.600;2023-07-16T00:26:06;95441.56;;;23.78;100.00
40245;BME280;25963;42.694;23.600;2023-07-16T00:28:31;95430.28;;;23.76;100.00
40245;BME280;25963;42.694;23.600;2023-07-16T00:30:57;95440.66;;;23.64;100.00
40245;BME280;25963;42.694;23.600;2023-07-16T00:33:22;95425.59;;;23.63;100.00
40245;BME280;25963;42.694;23.600;2023-07-16T00:35:48;95435.78;;;23.85;100.00
40245;BME280;25963;42.694;23.600;2023-07-16T00:38:14;95430.34;;;23.71;100.00
40245;BME280;25963;42.694;23.600;2023-07-16T00:40:40;95438.19;;;23.67;100.00
40245;BME280;25963;42.694;23.600;2023-07-16T00:43:05;95440.53;;;23.55;100.00
40245;BME280;25963;42.694;23.600;2023-07-16T00:45:31;95442.84;;;23.62;100.00
40245;BME280;25963;42.694;23.600;2023-07-16T00:47:57;95449.16;;;23.90;100.00
40245;BME280;25963;42.694;23.600;2023-07-16T00:50:22;95422.03;;;23.67;100.00
40245;BME280;25963;42.694;23.600;2023-07-16T00:52:48;95446.91;;;23.59;100.00
40245;BME280;25963;42.694;23.600;2023-07-16T00:55:14;95440.25;;;23.38;100.00
40245;BME280;25963;42.694;23.600;2023-07-16T00:57:40;95449.19;;;23.33;100.00
40245;BME280;25963;42.694;23.600;2023-07-16T01:00:06;95440.31;;;23.33;100.00
40245;BME280;25963;42.694;23.600;2023-07-16T01:02:33;95443.31;;;23.31;100.00
40245;BME280;25963;42.694;23.600;2023-07-16T01:04:58;95441.84;;;23.58;100.00
40245;BME280;25963;42.694;23.600;2023-07-16T01:07:26;95448.22;;;23.62;100.00
40245;BME280;25963;42.694;23.600;2023-07-16T01:09:54;95439.22;;;23.53;100.00
40245;BME280;25963;42.694;23.600;2023-07-16T01:12:21;95440.31;;;23.33;100.00
40245;BME280;25963;42.694;23.600;2023-07-16T01:14:47;95440.38;;;23.09;100.00
40245;BME280;25963;42.694;23.600;2023-07-16T01:17:13;95445.91;;;23.17;100.00
40245;BME280;25963;42.694;23.600;2023-07-16T01:19:38;95443.59;;;22.87;100.00
40245;BME280;25963;42.694;23.600;2023-07-16T01:24:59;95444.75;;;22.81;100.00
40245;BME280;25963;42.694;23.600;2023-07-16T01:27:50;95446.13;;;22.78;100.00
40245;BME280;25963;42.694;23.600;2023-07-16T01:30:19;95439.16;;;22.53;100.00
40245;BME280;25963;42.694;23.600;2023-07-16T01:32:46;95440.78;;;22.49;100.00
40245;BME280;25963;42.694;23.600;2023-07-16T01:35:12;95442.13;;;22.51;100.00
40245;BME280;25963;42.694;23.600;2023-07-16T01:37:39;95447.22;;;22.77;100.00
40245;BME280;25963;42.694;23.600;2023-07-16T01:40:06;95444.94;;;22.65;100.00
40245;BME280;25963;42.694;23.600;2023-07-16T01:42:34;95442.84;;;22.33;100.00
40245;BME280;25963;42.694;23.600;2023-07-16T01:44:59;95446.91;;;22.54;100.00
40245;BME280;25963;42.694;23.600;2023-07-16T01:47:40;95447.50;;;22.22;100.00
40245;BME280;25963;42.694;23.600;2023-07-16T01:50:10;95446.91;;;22.30;100.00
40245;BME280;25963;42.694;23.600;2023-07-16T01:52:35;95440.34;;;22.42;100.00
40245;BME280;25963;42.694;23.600;2023-07-16T01:55:01;95436.28;;;22.44;100.00
40245;BME280;25963;42.694;23.600;2023-07-16T01:57:26;95432.81;;;22.15;100.00
40245;BME280;25963;42.694;23.600;2023-07-16T01:59:52;95449.63;;;22.25;100.00
40245;BME280;25963;42.694;23.600;2023-07-16T02:02:17;95436.50;;;22.24;100.00
40245;BME280;25963;42.694;23.600;2023-07-16T02:04:42;95445.00;;;22.31;100.00
40245;BME280;25963;42.694;23.600;2023-07-16T02:07:08;95435.59;;;22.33;100.00
40245;BME280;25963;42.694;23.600;2023-07-16T02:09:34;95438.56;;;22.32;100.00
40245;BME280;25963;42.694;23.600;2023-07-16T02:12:00;95442.00;;;22.38;100.00
40245;BME280;25963;42.694;23.600;2023-07-16T02:14:25;95444.81;;;22.22;100.00
40245;BME280;25963;42.694;23.600;2023-07-16T02:16:51;95431.81;;;22.05;100.00
40245;BME280;25963;42.694;23.600;2023-07-16T02:19:17;95437.47;;;22.04;100.00
40245;BME280;25963;42.694;23.600;2023-07-16T02:21:42;95450.41;;;21.97;100.00
40245;BME280;25963;42.694;23.600;2023-07-16T02:24:08;95441.19;;;22.08;100.00
40245;BME280;25963;42.694;23.600;2023-07-16T02:26:33;95440.38;;;21.78;100.00
40245;BME280;25963;42.694;23.600;2023-07-16T02:28:59;95429.66;;;21.73;100.00
40245;BME280;25963;42.694;23.600;2023-07-16T02:31:24;95450.41;;;21.97;100.00
40245;BME280;25963;42.694;23.600;2023-07-16T02:33:50;95445.28;;;22.00;100.00
40245;BME280;25963;42.694;23.600;2023-07-16T02:36:15;95426.78;;;21.99;100.00
40245;BME280;25963;42.694;23.600;2023-07-16T02:38:41;95447.13;;;22.05;100.00
40245;BME280;25963;42.694;23.600;2023-07-16T02:41:06;95439.56;;;22.07;100.00
40245;BME280;25963;42.694;23.600;2023-07-16T02:43:32;95447.81;;;22.21;100.00
40245;BME280;25963;42.694;23.600;2023-07-16T02:45:57;95441.50;;;22.01;100.00
40245;BME280;25963;42.694;23.600;2023-07-16T02:48:22;95445.88;;;21.92;100.00
40245;BME280;25963;42.694;23.600;2023-07-16T02:50:48;95451.22;;;21.97;100.00
40245;BME280;25963;42.694;23.600;2023-07-16T02:53:13;95456.75;;;21.77;100.00
40245;BME280;25963;42.694;23.600;2023-07-16T02:55:39;95453.94;;;21.92;100.00
40245;BME280;25963;42.694;23.600;2023-07-16T02:58:04;95461.00;;;21.83;100.00
40245;BME280;25963;42.694;23.600;2023-07-16T03:00:33;95458.44;;;21.68;100.00
40245;BME280;25963;42.694;23.600;2023-07-16T03:02:59;95447.88;;;21.81;100.00
40245;BME280;25963;42.694;23.600;2023-07-16T03:05:26;95457.38;;;21.98;100.00
40245;BME280;25963;42.694;23.600;2023-07-16T03:07:51;95460.09;;;21.93;100.00
40245;BME280;25963;42.694;23.600;2023-07-16T03:10:17;95453.72;;;21.88;100.00
40245;BME280;25963;42.694;23.600;2023-07-16T03:12:42;95451.94;;;22.08;100.00
40245;BME280;25963;42.694;23.600;2023-07-16T03:15:08;95456.44;;;22.18;100.00
40245;BME280;25963;42.694;23.600;2023-07-16T03:17:34;95461.53;;;21.85;100.00
40245;BME280;25963;42.694;23.600;2023-07-16T03:19:59;95457.72;;;21.91;100.00
40245;BME280;25963;42.694;23.600;2023-07-16T03:22:25;95464.75;;;21.87;100.00
40245;BME280;25963;42.694;23.600;2023-07-16T03:24:50;95454.59;;;21.79;100.00
40245;BME280;25963;42.694;23.600;2023-07-16T03:27:16;95443.56;;;21.80;100.00
40245;BME280;25963;42.694;23.600;2023-07-16T03:29:41;95464.47;;;21.83;100.00
40245;BME280;25963;42.694;23.600;2023-07-16T03:32:07;95466.50;;;22.02;100.00
40245;BME280;25963;42.694;23.600;2023-07-16T03:34:33;95468.00;;;22.13;100.00
40245;BME280;25963;42.694;23.600;2023-07-16T03:36:58;95470.47;;;22.39;100.00
40245;BME280;25963;42.694;23.600;2023-07-16T03:39:23;95467.84;;;22.33;100.00
40245;BME280;25963;42.694;23.600;2023-07-16T03:41:49;95469.63;;;22.67;100.00
40245;BME280;25963;42.694;23.600;2023-07-16T03:44:14;95470.47;;;22.39;100.00
40245;BME280;25963;42.694;23.600;2023-07-16T03:46:40;95472.38;;;22.38;100.00
40245;BME280;25963;42.694;23.600;2023-07-16T03:49:07;95477.00;;;22.56;100.00
40245;BME280;25963;42.694;23.600;2023-07-16T03:51:33;95477.28;;;22.55;100.00
40245;BME280;25963;42.694;23.600;2023-07-16T03:53:59;95486.56;;;22.44;100.00
40245;BME280;25963;42.694;23.600;2023-07-16T03:56:24;95477.69;;;22.91;100.00
40245;BME280;25963;42.694;23.600;2023-07-16T03:58:50;95481.47;;;22.90;100.00
40245;BME280;25963;42.694;23.600;2023-07-16T04:01:15;95467.63;;;23.02;100.00
40245;BME280;25963;42.694;23.600;2023-07-16T04:03:41;95478.44;;;23.40;100.00
40245;BME280;25963;42.694;23.600;2023-07-16T04:06:08;95480.88;;;24.26;100.00
40245;BME280;25963;42.694;23.600;2023-07-16T04:08:37;95482.19;;;25.02;94.56
40245;BME280;25963;42.694;23.600;2023-07-16T04:11:04;95477.81;;;25.93;88.39
40245;BME280;25963;42.694;23.600;2023-07-16T04:13:29;95467.03;;;26.86;80.61
40245;BME280;25963;42.694;23.600;2023-07-16T04:15:55;95479.19;;;27.81;76.56
40245;BME280;25963;42.694;23.600;2023-07-16T04:18:22;95467.94;;;28.35;72.43
40245;BME280;25963;42.694;23.600;2023-07-16T04:20:48;95470.78;;;29.32;67.60
40245;BME280;25963;42.694;23.600;2023-07-16T04:23:13;95476.38;;;29.78;65.34
40245;BME280;25963;42.694;23.600;2023-07-16T04:25:39;95470.41;;;30.18;63.64
40245;BME280;25963;42.694;23.600;2023-07-16T04:28:04;95476.13;;;30.58;61.22
40245;BME280;25963;42.694;23.600;2023-07-16T04:30:30;95479.25;;;30.81;59.91
40245;BME280;25963;42.694;23.600;2023-07-16T04:32:55;95476.94;;;31.20;58.10
40245;BME280;25963;42.694;23.600;2023-07-16T04:35:21;95490.50;;;31.41;56.39
40245;BME280;25963;42.694;23.600;2023-07-16T04:37:46;95470.78;;;31.72;55.17
40245;BME280;25963;42.694;23.600;2023-07-16T04:40:12;95480.03;;;31.96;52.40
40245;BME280;25963;42.694;23.600;2023-07-16T04:42:37;95485.47;;;31.31;54.95
40245;BME280;25963;42.694;23.600;2023-07-16T04:45:04;95483.53;;;31.31;55.34
40245;BME280;25963;42.694;23.600;2023-07-16T04:47:30;95493.47;;;31.76;55.12
40245;BME280;25963;42.694;23.600;2023-07-16T04:49:57;95491.13;;;32.59;51.82
40245;BME280;25963;42.694;23.600;2023-07-16T04:52:23;95496.72;;;31.54;55.06
40245;BME280;25963;42.694;23.600;2023-07-16T04:54:48;95502.59;;;31.31;55.71
40245;BME280;25963;42.694;23.600;2023-07-16T04:57:14;95485.06;;;31.41;53.79
40245;BME280;25963;42.694;23.600;2023-07-16T04:59:39;95499.38;;;31.78;53.85
40245;BME280;25963;42.694;23.600;2023-07-16T05:02:07;95492.06;;;32.07;51.69
40245;BME280;25963;42.694;23.600;2023-07-16T05:04:34;95493.19;;;31.29;52.63
40245;BME280;25963;42.694;23.600;2023-07-16T05:07:04;95497.84;;;31.41;54.19
40245;BME280;25963;42.694;23.600;2023-07-16T05:09:29;95488.53;;;31.17;52.71
40245;BME280;25963;42.694;23.600;2023-07-16T05:11:55;95505.31;;;32.49;50.63
40245;BME280;25963;42.694;23.600;2023-07-16T05:14:20;95499.06;;;32.36;49.71
40245;BME280;25963;42.694;23.600;2023-07-16T05:16:46;95494.28;;;32.45;49.10
40245;BME280;25963;42.694;23.600;2023-07-16T05:19:11;95512.75;;;32.08;51.31
40245;BME280;25963;42.694;23.600;2023-07-16T05:21:37;95484.38;;;32.41;49.39
40245;BME280;25963;42.694;23.600;2023-07-16T05:24:03;95501.00;;;32.36;49.99
40245;BME280;25963;42.694;23.600;2023-07-16T05:26:28;95509.00;;;31.48;50.36
40245;BME280;25963;42.694;23.600;2023-07-16T05:28:54;95503.44;;;31.97;51.22
40245;BME280;25963;42.694;23.600;2023-07-16T05:31:19;95501.22;;;33.18;48.76
40245;BME280;25963;42.694;23.600;2023-07-16T05:33:45;95501.75;;;33.08;45.52
40245;BME280;25963;42.694;23.600;2023-07-16T05:36:10;95503.97;;;33.03;47.91
40245;BME280;25963;42.694;23.600;2023-07-16T05:38:36;95505.47;;;32.00;51.07
40245;BME280;25963;42.694;23.600;2023-07-16T05:41:04;95508.63;;;31.61;51.80
40245;BME280;25963;42.694;23.600;2023-07-16T05:43:30;95488.78;;;31.36;51.06
40245;BME280;25963;42.694;23.600;2023-07-16T05:45:56;95496.13;;;30.41;57.67
40245;BME280;25963;42.694;23.600;2023-07-16T05:48:21;95507.28;;;30.48;56.14
40245;BME280;25963;42.694;23.600;2023-07-16T05:50:47;95502.50;;;30.91;54.79
40245;BME280;25963;42.694;23.600;2023-07-16T05:53:12;95505.81;;;31.46;53.02
40245;BME280;25963;42.694;23.600;2023-07-16T05:55:41;95506.72;;;31.62;52.45
40245;BME280;25963;42.694;23.600;2023-07-16T05:58:06;95498.47;;;30.64;54.86
40245;BME280;25963;42.694;23.600;2023-07-16T06:00:32;95494.31;;;31.28;54.69
40245;BME280;25963;42.694;23.600;2023-07-16T06:02:58;95507.13;;;31.64;52.80
40245;BME280;25963;42.694;23.600;2023-07-16T06:05:23;95505.34;;;31.07;52.08
40245;BME280;25963;42.694;23.600;2023-07-16T06:07:50;95512.13;;;31.74;54.13
40245;BME280;25963;42.694;23.600;2023-07-16T06:10:15;95517.16;;;31.60;53.19
40245;BME280;25963;42.694;23.600;2023-07-16T06:12:41;95514.47;;;32.28;49.85
40245;BME280;25963;42.694;23.600;2023-07-16T06:15:06;95501.34;;;31.66;52.61
40245;BME280;25963;42.694;23.600;2023-07-16T06:17:32;95514.44;;;30.53;52.68
40245;BME280;25963;42.694;23.600;2023-07-16T06:19:57;95515.91;;;31.33;51.25
40245;BME280;25963;42.694;23.600;2023-07-16T06:22:23;95511.94;;;31.06;53.09
40245;BME280;25963;42.694;23.600;2023-07-16T06:24:48;95514.13;;;32.02;51.52
40245;BME280;25963;42.694;23.600;2023-07-16T06:27:14;95508.31;;;31.26;51.71
40245;BME280;25963;42.694;23.600;2023-07-16T06:29:39;95512.09;;;31.87;52.58
40245;BME280;25963;42.694;23.600;2023-07-16T06:32:05;95513.09;;;32.35;50.22
40245;BME280;25963;42.694;23.600;2023-07-16T06:34:31;95515.69;;;31.63;49.51
40245;BME280;25963;42.694;23.600;2023-07-16T06:36:56;95510.28;;;31.91;50.16
40245;BME280;25963;42.694;23.600;2023-07-16T06:39:22;95503.97;;;31.50;48.69
40245;BME280;25963;42.694;23.600;2023-07-16T06:41:47;95508.94;;;31.72;51.29
40245;BME280;25963;42.694;23.600;2023-07-16T06:44:13;95505.56;;;31.14;50.78
40245;BME280;25963;42.694;23.600;2023-07-16T06:46:39;95506.13;;;32.09;52.28
40245;BME280;25963;42.694;23.600;2023-07-16T06:49:05;95498.50;;;32.15;49.46
40245;BME280;25963;42.694;23.600;2023-07-16T06:51:31;95503.75;;;31.55;49.67
40245;BME280;25963;42.694;23.600;2023-07-16T06:53:57;95491.25;;;31.17;50.96
40245;BME280;25963;42.694;23.600;2023-07-16T06:56:22;95488.47;;;31.91;50.45
40245;BME280;25963;42.694;23.600;2023-07-16T06:58:48;95501.19;;;31.87;52.29
40245;BME280;25963;42.694;23.600;2023-07-16T07:01:14;95493.97;;;31.66;50.51
40245;BME280;25963;42.694;23.600;2023-07-16T07:03:39;95485.97;;;31.73;49.81
40245;BME280;25963;42.694;23.600;2023-07-16T07:08:40;95480.63;;;31.00;52.99
40245;BME280;25963;42.694;23.600;2023-07-16T07:11:05;95476.31;;;30.53;56.78
40245;BME280;25963;42.694;23.600;2023-07-16T07:13:31;95488.88;;;30.79;55.24
40245;BME280;25963;42.694;23.600;2023-07-16T07:15:56;95501.03;;;31.18;54.04
40245;BME280;25963;42.694;23.600;2023-07-16T07:18:22;95503.19;;;31.49;52.90
40245;BME280;25963;42.694;23.600;2023-07-16T07:20:47;95473.66;;;31.51;54.93
40245;BME280;25963;42.694;23.600;2023-07-16T07:23:14;95480.63;;;31.89;53.52
40245;BME280;25963;42.694;23.600;2023-07-16T07:25:40;95482.28;;;31.66;52.96
40245;BME280;25963;42.694;23.600;2023-07-16T07:28:06;95486.06;;;31.36;53.38
40245;BME280;25963;42.694;23.600;2023-07-16T07:30:32;95465.84;;;31.01;54.93
40245;BME280;25963;42.694;23.600;2023-07-16T07:32:57;95474.16;;;31.41;54.67
40245;BME280;25963;42.694;23.600;2023-07-16T07:35:23;95469.97;;;31.72;54.72
40245;BME280;25963;42.694;23.600;2023-07-16T07:37:48;95483.66;;;31.35;54.46
40245;BME280;25963;42.694;23.600;2023-07-16T07:40:14;95473.09;;;31.46;53.95
40245;BME280;25963;42.694;23.600;2023-07-16T07:42:39;95459.69;;;32.21;54.03
40245;BME280;25963;42.694;23.600;2023-07-16T07:45:05;95487.78;;;32.50;50.91
40245;BME280;25963;42.694;23.600;2023-07-16T07:47:31;95477.16;;;32.77;50.17
40245;BME280;25963;42.694;23.600;2023-07-16T07:49:56;95466.22;;;32.33;51.13
40245;BME280;25963;42.694;23.600;2023-07-16T07:52:21;95460.69;;;32.01;50.83
40245;BME280;25963;42.694;23.600;2023-07-16T07:54:47;95455.03;;;31.53;51.50
40245;BME280;25963;42.694;23.600;2023-07-16T07:57:14;95452.31;;;31.81;55.22
40245;BME280;25963;42.694;23.600;2023-07-16T07:59:40;95465.34;;;32.00;52.60
40245;BME280;25963;42.694;23.600;2023-07-16T08:02:05;95456.94;;;32.21;51.60
40245;BME280;25963;42.694;23.600;2023-07-16T08:04:31;95456.06;;;32.17;50.36
40245;BME280;25963;42.694;23.600;2023-07-16T08:06:57;95466.22;;;32.92;53.10
40245;BME280;25963;42.694;23.600;2023-07-16T08:09:23;95446.50;;;32.23;52.67
40245;BME280;25963;42.694;23.600;2023-07-16T08:11:48;95450.47;;;31.98;53.72
40245;BME280;25963;42.694;23.600;2023-07-16T08:14:14;95443.81;;;32.11;55.89
40245;BME280;25963;42.694;23.600;2023-07-16T08:16:39;95461.69;;;32.09;53.35
40245;BME280;25963;42.694;23.600;2023-07-16T08:19:05;95458.53;;;32.66;56.36
40245;BME280;25963;42.694;23.600;2023-07-16T08:21:32;95461.81;;;32.72;50.17
40245;BME280;25963;42.694;23.600;2023-07-16T08:23:57;95464.34;;;32.81;53.08
40245;BME280;25963;42.694;23.600;2023-07-16T08:26:23;95475.47;;;32.56;52.94
40245;BME280;25963;42.694;23.600;2023-07-16T08:28:48;95462.28;;;32.02;56.61
40245;BME280;25963;42.694;23.600;2023-07-16T08:31:14;95457.22;;;32.60;57.26
40245;BME280;25963;42.694;23.600;2023-07-16T08:33:40;95452.13;;;32.74;53.15
40245;BME280;25963;42.694;23.600;2023-07-16T08:36:05;95468.66;;;32.50;52.49
40245;BME280;25963;42.694;23.600;2023-07-16T08:38:31;95446.03;;;32.65;53.23
40245;BME280;25963;42.694;23.600;2023-07-16T08:40:57;95454.19;;;33.29;50.79
40245;BME280;25963;42.694;23.600;2023-07-16T08:43:22;95445.34;;;33.00;51.48
40245;BME280;25963;42.694;23.600;2023-07-16T08:45:48;95463.47;;;32.61;53.48
40245;BME280;25963;42.694;23.600;2023-07-16T08:48:16;95438.88;;;32.45;53.48
40245;BME280;25963;42.694;23.600;2023-07-16T08:50:42;95465.84;;;32.46;54.95
40245;BME280;25963;42.694;23.600;2023-07-16T08:53:07;95440.03;;;32.76;54.87
40245;BME280;25963;42.694;23.600;2023-07-16T08:55:34;95459.28;;;33.46;51.65
40245;BME280;25963;42.694;23.600;2023-07-16T08:58:04;95443.72;;;33.31;48.59
40245;BME280;25963;42.694;23.600;2023-07-16T09:00:30;95470.19;;;33.62;51.26
40245;BME280;25963;42.694;23.600;2023-07-16T09:02:56;95448.50;;;34.08;53.18
40245;BME280;25963;42.694;23.600;2023-07-16T09:05:22;95455.19;;;34.11;49.02
40245;BME280;25963;42.694;23.600;2023-07-16T09:07:48;95447.50;;;34.39;48.07
40245;BME280;25963;42.694;23.600;2023-07-16T09:10:14;95453.69;;;34.36;48.66
40245;BME280;25963;42.694;23.600;2023-07-16T09:12:43;95420.94;;;34.63;49.83
40245;BME280;25963;42.694;23.600;2023-07-16T09:15:10;95451.13;;;35.12;51.18
40245;BME280;25963;42.694;23.600;2023-07-16T09:17:35;95432.66;;;35.36;47.33
40245;BME280;25963;42.694;23.600;2023-07-16T09:20:03;95428.56;;;34.30;45.97
40245;BME280;25963;42.694;23.600;2023-07-16T09:22:29;95417.03;;;34.64;56.09
40245;BME280;25963;42.694;23.600;2023-07-16T09:24:55;95444.31;;;34.57;48.28
40245;BME280;25963;42.694;23.600;2023-07-16T09:27:27;95433.56;;;33.86;49.95
40245;BME280;25963;42.694;23.600;2023-07-16T09:29:53;95433.41;;;33.98;47.44
40245;BME280;25963;42.694;23.600;2023-07-16T09:32:18;95450.22;;;34.59;48.97
40245;BME280;25963;42.694;23.600;2023-07-16T09:34:44;95437.31;;;35.05;49.16
40245;BME280;25963;42.694;23.600;2023-07-16T09:37:10;95412.72;;;34.63;46.73
40245;BME280;25963;42.694;23.600;2023-07-16T09:39:36;95433.94;;;35.15;49.29
40245;BME280;25963;42.694;23.600;2023-07-16T09:42:02;95418.28;;;35.42;47.91
40245;BME280;25963;42.694;23.600;2023-07-16T09:44:29;95435.13;;;35.18;45.82
40245;BME280;25963;42.694;23.600;2023-07-16T09:46:55;95425.75;;;34.46;50.77
40245;BME280;25963;42.694;23.600;2023-07-16T09:49:20;95423.63;;;34.59;45.64
40245;BME280;25963;42.694;23.600;2023-07-16T09:51:48;95410.63;;;34.33;47.77
40245;BME280;25963;42.694;23.600;2023-07-16T09:54:15;95418.31;;;34.70;49.78
40245;BME280;25963;42.694;23.600;2023-07-16T09:56:50;95404.84;;;34.38;48.51
40245;BME280;25963;42.694;23.600;2023-07-16T09:59:17;95408.59;;;34.99;47.07
40245;BME280;25963;42.694;23.600;2023-07-16T10:01:45;95409.44;;;35.56;49.95
40245;BME280;25963;42.694;23.600;2023-07-16T10:04:16;95410.41;;;35.41;44.84
40245;BME280;25963;42.694;23.600;2023-07-16T10:12:27;95408.03;;;36.37;43.73
40245;BME280;25963;42.694;23.600;2023-07-16T10:14:54;95397.97;;;35.81;43.30
40245;BME280;25963;42.694;23.600;2023-07-16T10:17:24;95406.00;;;35.63;44.39
40245;BME280;25963;42.694;23.600;2023-07-16T10:19:54;95403.56;;;35.28;44.19
40245;BME280;25963;42.694;23.600;2023-07-16T10:25:24;95412.13;;;35.53;46.31
40245;BME280;25963;42.694;23.600;2023-07-16T10:27:50;95397.88;;;36.04;44.90
40245;BME280;25963;42.694;23.600;2023-07-16T10:30:16;95370.19;;;36.57;43.55
40245;BME280;25963;42.694;23.600;2023-07-16T10:32:42;95382.06;;;36.72;42.85
40245;BME280;25963;42.694;23.600;2023-07-16T10:35:08;95380.81;;;37.10;42.13
40245;BME280;25963;42.694;23.600;2023-07-16T10:37:34;95391.13;;;36.76;46.32
40245;BME280;25963;42.694;23.600;2023-07-16T10:40:01;95390.22;;;36.20;39.66
40245;BME280;25963;42.694;23.600;2023-07-16T10:42:27;95396.09;;;36.22;40.28
40245;BME280;25963;42.694;23.600;2023-07-16T10:44:57;95387.25;;;36.84;46.29
40245;BME280;25963;42.694;23.600;2023-07-16T10:47:24;95384.50;;;36.84;44.29
40245;BME280;25963;42.694;23.600;2023-07-16T10:49:52;95375.75;;;37.19;41.62
40245;BME280;25963;42.694;23.600;2023-07-16T10:52:20;95374.97;;;36.26;41.61
40245;BME280;25963;42.694;23.600;2023-07-16T10:54:46;95365.97;;;36.26;44.22
40245;BME280;25963;42.694;23.600;2023-07-16T10:57:12;95370.72;;;36.77;44.46
40245;BME280;25963;42.694;23.600;2023-07-16T10:59:39;95350.63;;;36.69;41.72
40245;BME280;25963;42.694;23.600;2023-07-16T11:02:08;95374.66;;;37.35;41.48
40245;BME280;25963;42.694;23.600;2023-07-16T11:04:35;95342.34;;;37.21;44.14
40245;BME280;25963;42.694;23.600;2023-07-16T11:07:05;95361.94;;;37.12;40.67
40245;BME280;25963;42.694;23.600;2023-07-16T11:09:32;95361.91;;;37.09;39.53
40245;BME280;25963;42.694;23.600;2023-07-16T11:12:08;95358.69;;;36.96;42.67
40245;BME280;25963;42.694;23.600;2023-07-16T11:14:34;95374.78;;;36.97;38.90
40245;BME280;25963;42.694;23.600;2023-07-16T11:17:09;95367.28;;;36.46;39.68
40245;BME280;25963;42.694;23.600;2023-07-16T11:19:36;95328.41;;;36.92;43.30
40245;BME280;25963;42.694;23.600;2023-07-16T11:22:04;95347.47;;;37.22;40.22
40245;BME280;25963;42.694;23.600;2023-07-16T11:24:40;95358.03;;;37.17;38.17
40245;BME280;25963;42.694;23.600;2023-07-16T11:27:16;95348.34;;;37.41;42.16
40245;BME280;25963;42.694;23.600;2023-07-16T11:29:46;95354.38;;;36.47;42.28
40245;BME280;25963;42.694;23.600;2023-07-16T11:32:11;95353.81;;;37.34;40.17
40245;BME280;25963;42.694;23.600;2023-07-16T11:34:37;95331.34;;;37.24;40.78
40245;BME280;25963;42.694;23.600;2023-07-16T11:37:10;95347.72;;;37.76;37.52
40245;BME280;25963;42.694;23.600;2023-07-16T11:39:36;95359.22;;;38.03;39.84
40245;BME280;25963;42.694;23.600;2023-07-16T11:42:02;95348.59;;;37.95;36.40
40245;BME280;25963;42.694;23.600;2023-07-16T11:44:35;95325.72;;;37.87;35.06
40245;BME280;25963;42.694;23.600;2023-07-16T11:47:01;95352.03;;;37.77;36.13
40245;BME280;25963;42.694;23.600;2023-07-16T11:49:27;95325.53;;;37.37;35.74
40245;BME280;25963;42.694;23.600;2023-07-16T11:51:52;95333.63;;;37.99;36.60
40245;BME280;25963;42.694;23.600;2023-07-16T11:54:17;95334.78;;;37.91;36.06
40245;BME280;25963;42.694;23.600;2023-07-16T11:56:43;95332.81;;;37.88;32.87
40245;BME280;25963;42.694;23.600;2023-07-16T11:59:08;95345.09;;;38.37;38.56
40245;BME280;25963;42.694;23.600;2023-07-16T12:01:34;95334.84;;;38.23;31.92
40245;BME280;25963;42.694;23.600;2023-07-16T12:03:59;95323.09;;;38.55;34.47
40245;BME280;25963;42.694;23.600;2023-07-16T12:06:24;95313.25;;;38.68;35.07
40245;BME280;25963;42.694;23.600;2023-07-16T12:08:50;95338.78;;;38.83;33.40
40245;BME280;25963;42.694;23.600;2023-07-16T12:11:15;95316.78;;;38.54;31.76
40245;BME280;25963;42.694;23.600;2023-07-16T12:13:41;95328.97;;;38.50;31.81
40245;BME280;25963;42.694;23.600;2023-07-16T12:16:06;95323.88;;;38.88;32.32
40245;BME280;25963;42.694;23.600;2023-07-16T12:18:32;95339.53;;;39.30;33.69
40245;BME280;25963;42.694;23.600;2023-07-16T12:20:57;95312.06;;;38.58;30.20
40245;BME280;25963;42.694;23.600;2023-07-16T12:23:23;95329.78;;;38.90;31.92
40245;BME280;25963;42.694;23.600;2023-07-16T12:25:49;95331.34;;;38.73;29.14
40245;BME280;25963;42.694;23.600;2023-07-16T12:28:15;95338.34;;;37.99;29.69
40245;BME280;25963;42.694;23.600;2023-07-16T12:30:40;95323.22;;;37.46;30.78
40245;BME280;25963;42.694;23.600;2023-07-16T12:33:06;95317.84;;;37.82;32.54
40245;BME280;25963;42.694;23.600;2023-07-16T12:35:31;95309.97;;;37.77;29.53
40245;BME280;25963;42.694;23.600;2023-07-16T12:37:56;95336.81;;;38.19;30.54
40245;BME280;25963;42.694;23.600;2023-07-16T12:40:24;95326.56;;;38.05;33.29
40245;BME280;25963;42.694;23.600;2023-07-16T12:42:49;95301.66;;;37.62;35.16
40245;BME280;25963;42.694;23.600;2023-07-16T12:45:14;95322.50;;;37.63;33.08
40245;BME280;25963;42.694;23.600;2023-07-16T12:47:40;95299.72;;;37.63;30.38
40245;BME280;25963;42.694;23.600;2023-07-16T12:50:06;95304.19;;;37.09;34.26
40245;BME280;25963;42.694;23.600;2023-07-16T12:52:31;95316.56;;;37.47;35.60
40245;BME280;25963;42.694;23.600;2023-07-16T12:54:57;95315.94;;;37.02;33.17
40245;BME280;25963;42.694;23.600;2023-07-16T12:57:22;95323.94;;;37.29;34.86